Time;durP1;ratioP1;P1;durP2;ratioP2;P2;SDS_P1;SDS_P2;PMS_P1;PMS_P2;Temp;Humidity;BMP_temperature;BMP_pressure;BME280_temperature;BME280_humidity;BME280_pressure;Samples;Min_cycle;Max_cycle;Signal;HPM_P1;HPM_P2
2022/09/07 00:00:40;;;;;;;3.63;1.73;;;;;;;23.83;61.46;99983.19;5069495;28;20175;-66
2022/09/07 00:03:06;;;;;;;9.80;1.50;;;;;;;23.89;61.43;99987.28;5068413;28;20238;-66
2022/09/07 00:05:32;;;;;;;8.10;2.10;;;;;;;23.90;61.42;99985.22;5078119;28;20463;-66
2022/09/07 00:07:57;;;;;;;3.97;1.90;;;;;;;23.92;61.37;99977.78;5054632;28;20603;-66
2022/09/07 00:10:23;;;;;;;7.67;1.97;;;;;;;23.91;61.29;99975.31;5071121;28;20190;-66
2022/09/07 00:12:49;;;;;;;6.33;1.40;;;;;;;23.92;61.21;99974.91;5070321;28;20233;-67
2022/09/07 00:15:14;;;;;;;5.57;1.93;;;;;;;23.88;61.51;99973.28;5064444;28;20162;-66
2022/09/07 00:17:40;;;;;;;6.23;2.30;;;;;;;23.91;61.50;99967.50;5089793;28;20852;-66
2022/09/07 00:20:07;;;;;;;4.43;1.37;;;;;;;23.87;61.23;99965.84;5089408;28;20169;-66
2022/09/07 00:22:32;;;;;;;4.40;1.53;;;;;;;23.85;61.52;99959.69;5071477;28;20441;-66
2022/09/07 00:24:58;;;;;;;4.87;1.73;;;;;;;23.85;61.37;99954.75;5071372;28;20452;-66
2022/09/07 00:27:23;;;;;;;5.10;1.80;;;;;;;23.80;61.72;99951.50;5054654;28;20162;-66
2022/09/07 00:29:49;;;;;;;9.27;2.20;;;;;;;23.69;62.07;99947.88;5089147;28;20154;-66
2022/09/07 00:32:14;;;;;;;3.90;2.10;;;;;;;23.68;62.20;99943.38;5071698;28;20174;-67
2022/09/07 00:34:40;;;;;;;9.23;1.87;;;;;;;23.67;62.18;99947.47;5089645;28;20177;-67
2022/09/07 00:37:05;;;;;;;7.03;1.90;;;;;;;23.63;62.33;99944.63;5071684;28;20171;-66
2022/09/07 00:39:32;;;;;;;6.57;2.30;;;;;;;23.74;62.23;99948.25;5071032;28;20213;-67
2022/09/07 00:41:58;;;;;;;4.63;1.80;;;;;;;23.49;62.77;99946.81;5089047;28;20658;-66
2022/09/07 00:44:41;;;;;;;5.20;2.17;;;;;;;23.64;62.11;99943.38;5071457;28;20409;-66
2022/09/07 00:47:16;;;;;;;7.20;1.93;;;;;;;23.68;62.43;99946.25;5071076;28;20194;-66
2022/09/07 00:49:42;;;;;;;8.40;1.87;;;;;;;23.73;62.10;99955.25;5071106;28;20408;-67
2022/09/07 00:52:07;;;;;;;8.63;2.03;;;;;;;23.74;62.09;99954.00;5070302;28;20412;-67
2022/09/07 00:54:38;;;;;;;4.77;2.10;;;;;;;23.78;61.98;99954.78;5066914;28;20518;-66
2022/09/07 00:57:04;;;;;;;10.43;2.40;;;;;;;23.75;62.38;99955.66;5070378;28;20746;-66
2022/09/07 00:59:33;;;;;;;4.53;2.10;;;;;;;23.77;62.25;99950.28;5054135;28;20416;-67
2022/09/07 01:01:58;;;;;;;5.63;2.30;;;;;;;23.81;62.13;99964.66;5054771;28;20270;-67
2022/09/07 01:04:24;;;;;;;4.63;2.30;;;;;;;23.81;62.16;100000.09;5038066;28;20480;-66
2022/09/07 01:06:49;;;;;;;4.20;2.27;;;;;;;23.79;62.15;100022.75;5072458;28;20218;-66
2022/09/07 01:09:17;;;;;;;5.53;1.80;;;;;;;23.59;62.84;100006.44;5071179;28;20204;-66
2022/09/07 01:11:49;;;;;;;4.43;1.60;;;;;;;23.65;62.70;100014.22;5054142;28;20358;-66
2022/09/07 01:14:14;;;;;;;3.73;2.17;;;;;;;23.65;63.21;100025.75;5060457;28;20416;-66
2022/09/07 01:16:43;;;;;;;7.73;2.03;;;;;;;23.71;62.91;100021.19;5052629;28;20416;-65
2022/09/07 01:19:37;;;;;;;6.40;2.10;;;;;;;23.73;62.80;100026.53;5071963;28;20182;-67
2022/09/07 01:22:06;;;;;;;4.40;1.87;;;;;;;23.75;63.00;100036.38;5032797;28;20432;-66
2022/09/07 01:24:49;;;;;;;6.00;2.10;;;;;;;23.71;62.86;100032.72;5072510;28;20808;-66
2022/09/07 01:27:18;;;;;;;7.77;2.50;;;;;;;23.72;63.05;100027.75;5055114;28;20401;-66
2022/09/07 01:30:04;;;;;;;3.53;1.80;;;;;;;23.76;62.74;100029.38;5063798;28;20958;-66
2022/09/07 01:32:51;;;;;;;6.40;2.50;;;;;;;23.79;62.75;100028.50;5092879;28;20744;-66
2022/09/07 01:36:04;;;;;;;6.87;2.47;;;;;;;23.82;62.65;100030.56;5092375;28;20405;-67
2022/09/07 01:38:46;;;;;;;4.50;1.87;;;;;;;23.83;62.54;100017.78;5010288;28;20493;-67
2022/09/07 01:41:30;;;;;;;12.63;2.60;;;;;;;23.85;62.58;100021.06;5009273;28;20428;-66
2022/09/07 01:44:05;;;;;;;9.10;2.37;;;;;;;23.86;62.51;100016.09;5057024;28;20422;-67
2022/09/07 01:46:55;;;;;;;7.03;2.30;;;;;;;23.88;61.89;100028.84;5045349;28;20962;-66
2022/09/07 01:49:27;;;;;;;5.10;1.77;;;;;;;23.90;62.28;100035.06;5034667;28;20438;-66
2022/09/07 01:51:56;;;;;;;7.93;1.80;;;;;;;23.91;62.84;100041.63;5053563;28;20845;-67
2022/09/07 01:54:29;;;;;;;5.47;1.60;;;;;;;23.91;62.71;100030.94;5047529;28;20470;-67
2022/09/07 01:56:57;;;;;;;6.90;2.30;;;;;;;23.92;62.74;100043.28;5052972;28;20424;-67
2022/09/07 01:59:56;;;;;;;9.23;1.90;;;;;;;23.92;62.72;100038.34;5070525;28;20433;-66
2022/09/07 02:02:28;;;;;;;8.30;1.97;;;;;;;23.94;62.88;100044.50;5038980;28;20515;-67
2022/09/07 02:04:59;;;;;;;7.80;1.97;;;;;;;23.94;62.64;100047.38;5072769;28;20441;-66
2022/09/07 02:07:49;;;;;;;5.77;1.87;;;;;;;23.95;62.97;100045.31;5036391;28;20473;-67
2022/09/07 02:10:19;;;;;;;6.20;2.13;;;;;;;23.93;62.83;100048.63;5063773;28;20507;-67
2022/09/07 02:12:47;;;;;;;5.83;1.97;;;;;;;23.92;63.01;100047.00;5073823;28;20420;-66
2022/09/07 02:15:17;;;;;;;4.40;1.67;;;;;;;23.91;63.22;100059.78;5074043;28;20409;-66
2022/09/07 02:17:55;;;;;;;5.57;2.03;;;;;;;23.92;62.82;100057.69;5036379;28;20429;-66
2022/09/07 02:20:22;;;;;;;6.13;1.70;;;;;;;23.90;63.67;100057.31;5042087;28;20467;-67
2022/09/07 02:22:50;;;;;;;6.93;2.40;;;;;;;23.89;63.58;100055.69;5056855;28;20412;-67
2022/09/07 02:25:20;;;;;;;6.00;2.10;;;;;;;23.86;63.99;100065.13;5040515;28;20464;-68
2022/09/07 02:27:48;;;;;;;6.87;2.20;;;;;;;23.86;63.98;100065.97;5073806;28;20786;-66
2022/09/07 02:30:14;;;;;;;5.67;1.93;;;;;;;23.87;64.13;100070.47;5073739;28;20401;-67
2022/09/07 02:32:39;;;;;;;3.53;1.67;;;;;;;23.88;63.92;100063.47;5039761;28;20420;-66
2022/09/07 02:35:05;;;;;;;4.37;2.00;;;;;;;23.89;63.85;100067.22;5056508;28;20178;-66
2022/09/07 02:37:31;;;;;;;6.50;1.80;;;;;;;23.91;63.85;100053.19;5056433;28;20180;-66
2022/09/07 02:39:56;;;;;;;6.37;1.87;;;;;;;23.90;63.90;100061.03;5072487;28;20166;-67
2022/09/07 02:42:22;;;;;;;3.83;1.57;;;;;;;23.90;63.69;100049.50;5091291;28;20174;-66
2022/09/07 02:44:48;;;;;;;3.97;2.00;;;;;;;23.91;63.82;100045.34;5056237;28;20696;-68
2022/09/07 02:47:25;;;;;;;5.60;1.80;;;;;;;23.89;63.89;100044.94;5073351;28;20175;-67
2022/09/07 02:50:03;;;;;;;5.93;1.90;;;;;;;23.90;63.92;100040.84;5072502;28;20173;-66
2022/09/07 02:52:53;;;;;;;6.53;2.00;;;;;;;23.91;63.98;100044.53;5090767;28;20408;-66
2022/09/07 02:55:30;;;;;;;4.90;2.17;;;;;;;23.92;64.09;100043.28;5052761;28;21034;-66
2022/09/07 02:58:21;;;;;;;5.03;1.90;;;;;;;23.91;63.96;100039.59;5070536;28;20427;-66
2022/09/07 03:01:11;;;;;;;5.57;1.80;;;;;;;23.92;63.97;100043.28;5050527;28;20421;-66
2022/09/07 03:04:00;;;;;;;4.90;2.10;;;;;;;23.92;64.14;100026.81;5068389;28;21046;-66
2022/09/07 03:06:40;;;;;;;3.67;1.67;;;;;;;23.92;63.85;100035.47;5069278;28;20465;-66
2022/09/07 03:09:15;;;;;;;5.10;1.60;;;;;;;23.91;64.10;100036.72;5068737;28;20409;-66
2022/09/07 03:11:41;;;;;;;4.27;2.33;;;;;;;23.92;63.92;100037.50;5056987;28;20754;-66
2022/09/07 03:14:25;;;;;;;5.23;2.00;;;;;;;23.93;64.17;100039.16;5072578;28;20481;-67
2022/09/07 03:16:52;;;;;;;7.37;1.73;;;;;;;23.92;63.84;100029.69;5039256;28;20647;-66
2022/09/07 03:19:18;;;;;;;8.63;2.67;;;;;;;23.92;63.86;100032.56;5071596;28;20401;-66
2022/09/07 03:21:43;;;;;;;4.30;1.87;;;;;;;23.93;63.98;100022.66;5055182;28;20443;-66
2022/09/07 03:24:09;;;;;;;6.83;1.70;;;;;;;23.93;63.83;100031.31;5055667;28;20177;-66
2022/09/07 03:26:37;;;;;;;3.90;1.57;;;;;;;23.92;63.90;100032.56;5055723;28;20206;-66
2022/09/07 03:29:03;;;;;;;8.30;2.33;;;;;;;23.92;64.31;100029.69;5055185;28;20597;-66
2022/09/07 03:31:31;;;;;;;4.00;2.13;;;;;;;23.93;63.96;100033.41;5072115;28;20424;-66
2022/09/07 03:33:56;;;;;;;4.43;1.67;;;;;;;23.94;63.80;100023.50;5055669;28;20497;-66
2022/09/07 03:36:22;;;;;;;4.07;1.83;;;;;;;23.94;63.96;100029.28;5071809;28;20416;-66
2022/09/07 03:38:47;;;;;;;3.53;1.67;;;;;;;23.93;63.63;100027.63;5069956;28;20190;-67
2022/09/07 03:41:13;;;;;;;4.00;2.20;;;;;;;23.92;63.83;100021.03;5064160;28;20182;-66
2022/09/07 03:43:38;;;;;;;6.33;2.23;;;;;;;23.92;64.00;100023.91;5071879;28;20633;-67
2022/09/07 03:46:04;;;;;;;3.57;1.83;;;;;;;23.92;63.64;100023.91;5071995;28;20206;-67
2022/09/07 03:48:33;;;;;;;5.27;2.10;;;;;;;23.93;63.89;100016.09;5051122;28;20167;-68
2022/09/07 03:51:04;;;;;;;4.87;2.03;;;;;;;23.93;63.85;100030.53;5034793;28;20441;-66
2022/09/07 03:53:31;;;;;;;7.97;2.77;;;;;;;23.93;63.40;100028.44;5038894;28;20429;-67
2022/09/07 03:56:00;;;;;;;3.10;1.60;;;;;;;23.93;63.72;100031.31;5052028;28;20944;-66
2022/09/07 03:58:27;;;;;;;4.83;2.30;;;;;;;23.93;63.80;100037.09;5035170;28;20760;-66
2022/09/07 04:00:53;;;;;;;4.73;1.60;;;;;;;23.94;63.66;100040.81;5054166;28;20413;-66
2022/09/07 04:03:19;;;;;;;5.20;2.33;;;;;;;23.92;63.83;100044.09;5089628;28;20517;-67
2022/09/07 04:05:44;;;;;;;4.97;1.90;;;;;;;23.92;63.58;100044.09;5061658;28;20547;-66
2022/09/07 04:08:10;;;;;;;4.07;2.10;;;;;;;23.90;63.68;100046.59;5034476;28;20217;-67
2022/09/07 04:10:38;;;;;;;8.33;2.43;;;;;;;23.88;63.93;100048.25;5057931;28;21038;-67
2022/09/07 04:13:04;;;;;;;4.50;1.90;;;;;;;23.86;63.85;100051.53;5050987;28;20834;-66
2022/09/07 04:15:30;;;;;;;5.07;2.43;;;;;;;23.86;63.89;100045.78;5051457;28;20446;-66
2022/09/07 04:17:55;;;;;;;3.10;1.43;;;;;;;23.84;63.49;100051.13;5054457;28;20194;-66
2022/09/07 04:20:21;;;;;;;6.20;2.20;;;;;;;23.82;63.84;100039.22;5053507;28;20625;-67
2022/09/07 04:22:47;;;;;;;4.07;2.00;;;;;;;23.80;63.49;100049.53;5071564;28;20162;-68
2022/09/07 04:25:13;;;;;;;7.70;1.90;;;;;;;23.77;64.10;100044.59;5055019;28;20744;-66
2022/09/07 04:27:38;;;;;;;5.70;2.10;;;;;;;23.73;64.00;100050.38;5051356;28;20426;-66
2022/09/07 04:30:04;;;;;;;7.90;2.33;;;;;;;23.69;64.11;100040.13;5050980;28;20644;-66
2022/09/07 04:32:30;;;;;;;6.40;2.00;;;;;;;23.71;64.20;100052.06;5071763;28;20197;-67
2022/09/07 04:34:55;;;;;;;5.77;2.50;;;;;;;23.71;63.94;100043.41;5070362;28;20179;-67
2022/09/07 04:37:21;;;;;;;8.63;2.13;;;;;;;23.62;64.40;100048.81;5037890;28;20175;-67
2022/09/07 04:39:46;;;;;;;3.50;2.00;;;;;;;23.66;64.21;100050.44;5071136;28;20170;-66
2022/09/07 04:42:12;;;;;;;5.90;1.83;;;;;;;23.67;64.10;100049.19;5074974;28;20610;-67
2022/09/07 04:44:37;;;;;;;6.83;2.23;;;;;;;23.65;64.37;100062.41;5057767;28;20170;-67
2022/09/07 04:47:03;;;;;;;9.00;3.17;;;;;;;23.66;64.49;100061.16;5091769;28;20190;-67
2022/09/07 04:49:28;;;;;;;7.40;2.37;;;;;;;23.62;64.56;100069.81;5073263;28;20185;-67
2022/09/07 04:51:54;;;;;;;6.63;2.27;;;;;;;23.64;64.18;100067.31;5073373;28;20187;-67
2022/09/07 04:54:19;;;;;;;8.40;2.20;;;;;;;23.64;64.35;100070.22;5088528;28;20174;-68
2022/09/07 04:56:45;;;;;;;5.00;2.50;;;;;;;23.65;64.22;100069.00;5056730;28;20158;-68
2022/09/07 04:59:10;;;;;;;7.43;2.47;;;;;;;23.67;64.24;100069.38;5072108;28;20668;-67
2022/09/07 05:01:36;;;;;;;6.10;2.23;;;;;;;23.65;64.42;100077.63;5073820;28;20769;-67
2022/09/07 05:04:01;;;;;;;5.93;2.30;;;;;;;23.61;64.71;100076.84;5070060;28;20223;-67
2022/09/07 05:06:27;;;;;;;6.63;2.70;;;;;;;23.63;64.36;100067.78;5053934;28;20221;-66
2022/09/07 05:08:53;;;;;;;6.60;2.20;;;;;;;23.66;64.33;100076.41;5070882;28;20175;-67
2022/09/07 05:11:19;;;;;;;5.43;2.20;;;;;;;23.66;64.23;100085.03;5071572;28;20633;-67
2022/09/07 05:13:45;;;;;;;6.57;2.50;;;;;;;23.65;64.36;100079.69;5055102;28;20568;-67
2022/09/07 05:16:12;;;;;;;4.90;2.20;;;;;;;23.63;64.33;100082.97;5071572;28;20401;-67
2022/09/07 05:18:38;;;;;;;9.47;2.23;;;;;;;23.64;64.25;100081.75;5070766;28;20176;-68
2022/09/07 05:21:14;;;;;;;9.80;3.10;;;;;;;23.70;65.00;100077.19;5038003;28;20429;-66
2022/09/07 05:23:40;;;;;;;5.77;2.83;;;;;;;23.95;65.68;100088.59;5064210;28;20191;-66
2022/09/07 05:26:05;;;;;;;9.33;3.10;;;;;;;24.16;66.66;100086.34;5051733;28;20532;-67
2022/09/07 05:28:32;;;;;;;13.33;4.70;;;;;;;24.29;67.12;100087.47;5056369;28;20953;-67
2022/09/07 05:31:05;;;;;;;8.77;4.13;;;;;;;24.31;67.98;100089.94;5069292;28;20194;-67
2022/09/07 05:33:31;;;;;;;15.07;4.20;;;;;;;24.30;67.90;100088.31;5068734;28;20432;-68
2022/09/07 05:35:58;;;;;;;12.00;4.40;;;;;;;24.11;67.58;100088.88;5034414;28;20980;-68
2022/09/07 05:38:27;;;;;;;12.47;3.77;;;;;;;23.97;67.33;100095.56;5043648;28;20417;-67
2022/09/07 05:40:52;;;;;;;10.60;3.33;;;;;;;23.90;66.67;100101.41;5034817;28;20461;-67
2022/09/07 05:43:18;;;;;;;13.77;2.90;;;;;;;23.89;66.07;100099.72;5049959;28;20815;-68
2022/09/07 05:45:43;;;;;;;7.90;2.50;;;;;;;23.71;66.23;100096.13;5032100;28;20225;-67
2022/09/07 05:48:09;;;;;;;7.13;2.80;;;;;;;23.60;66.74;100100.31;5053575;28;20634;-66
2022/09/07 05:50:34;;;;;;;6.80;2.20;;;;;;;23.45;66.44;100105.34;5070475;28;20658;-67
2022/09/07 05:53:00;;;;;;;6.77;2.50;;;;;;;23.50;67.42;100104.91;5063780;28;20175;-68
2022/09/07 05:55:26;;;;;;;10.93;2.90;;;;;;;23.68;66.06;100091.19;5050684;28;20160;-67
2022/09/07 05:57:52;;;;;;;10.93;3.07;;;;;;;23.68;66.07;100102.72;5034427;28;20180;-67
2022/09/07 06:00:20;;;;;;;8.23;2.43;;;;;;;23.59;66.02;100111.00;5052989;28;20410;-68
2022/09/07 06:02:46;;;;;;;6.40;2.33;;;;;;;23.49;66.77;100116.84;5020994;28;20609;-69
2022/09/07 06:05:12;;;;;;;7.87;2.00;;;;;;;23.66;65.84;100122.50;5033284;28;20535;-67
2022/09/07 06:07:37;;;;;;;7.40;2.20;;;;;;;23.64;65.94;100121.28;5048168;28;20946;-67
2022/09/07 06:10:04;;;;;;;5.53;2.60;;;;;;;23.74;65.51;100118.31;5036403;28;20563;-67
2022/09/07 06:12:29;;;;;;;6.33;2.67;;;;;;;23.28;67.72;100129.25;5075601;28;20190;-69
2022/09/07 06:14:55;;;;;;;10.90;2.73;;;;;;;23.25;67.80;100130.13;5045013;28;20421;-67
2022/09/07 06:17:20;;;;;;;9.97;2.70;;;;;;;23.40;68.06;100125.09;5053703;28;20176;-66
2022/09/07 06:19:46;;;;;;;6.17;2.53;;;;;;;23.62;67.83;100129.53;5053401;28;20175;-67
2022/09/07 06:22:12;;;;;;;13.63;3.13;;;;;;;23.52;69.24;100134.09;5064969;28;20182;-67
2022/09/07 06:24:37;;;;;;;10.80;2.83;;;;;;;23.30;68.83;100135.44;5069957;28;20650;-65
2022/09/07 06:27:03;;;;;;;9.03;2.80;;;;;;;23.45;68.24;100139.09;5049109;28;20580;-67
2022/09/07 06:29:28;;;;;;;9.23;2.87;;;;;;;23.61;68.08;100136.53;5069416;28;20194;-67
2022/09/07 06:31:54;;;;;;;6.13;2.30;;;;;;;23.16;69.00;100131.75;5052612;28;20259;-67
2022/09/07 06:34:19;;;;;;;7.27;2.70;;;;;;;23.41;69.39;100136.22;5070281;28;20186;-68
2022/09/07 06:36:45;;;;;;;6.87;2.43;;;;;;;23.62;68.60;100141.88;5056957;28;20181;-67
2022/09/07 06:39:10;;;;;;;5.97;2.17;;;;;;;23.63;68.27;100142.72;5083679;28;20183;-68
2022/09/07 06:41:36;;;;;;;9.60;2.43;;;;;;;23.74;67.83;100144.28;5049846;28;20678;-68
2022/09/07 06:44:01;;;;;;;12.83;4.23;;;;;;;23.37;68.51;100140.34;5047441;28;20243;-68
2022/09/07 06:46:27;;;;;;;9.43;3.70;;;;;;;23.50;68.31;100136.59;5070567;28;20201;-68
2022/09/07 06:48:53;;;;;;;14.10;4.27;;;;;;;23.46;68.09;100141.56;5088991;28;20174;-71
2022/09/07 06:51:19;;;;;;;7.87;3.50;;;;;;;23.43;68.01;100147.34;5089015;28;20201;-71
2022/09/07 06:53:45;;;;;;;10.20;3.03;;;;;;;23.34;68.18;100139.13;5053005;28;20168;-70
2022/09/07 06:56:16;;;;;;;16.00;3.20;;;;;;;23.69;67.81;100141.84;5069843;28;20421;-72
2022/09/07 06:58:41;;;;;;;8.53;3.33;;;;;;;23.84;67.74;100137.63;5052400;28;20904;-71
2022/09/07 07:01:17;;;;;;;10.00;3.40;;;;;;;23.90;66.91;100144.66;5028139;28;20452;-71
2022/09/07 07:03:42;;;;;;;7.53;2.93;;;;;;;23.97;67.43;100143.75;5053366;28;20733;-71
2022/09/07 07:06:08;;;;;;;12.73;3.20;;;;;;;23.97;66.26;100143.75;5069747;28;20544;-71
2022/09/07 07:08:33;;;;;;;7.10;2.20;;;;;;;23.95;66.40;100149.97;5069544;28;20178;-71
2022/09/07 07:11:03;;;;;;;8.67;2.63;;;;;;;23.76;67.58;100141.81;5048969;28;20184;-73
2022/09/07 07:13:29;;;;;;;13.40;3.30;;;;;;;23.86;67.11;100143.81;5051252;28;20186;-71
2022/09/07 07:16:05;;;;;;;6.87;2.97;;;;;;;23.77;67.41;100154.97;5068014;28;20453;-73
2022/09/07 07:18:31;;;;;;;11.13;2.70;;;;;;;23.68;67.35;100156.69;5050136;28;20168;-73
2022/09/07 07:20:57;;;;;;;10.47;2.70;;;;;;;23.47;68.17;100160.47;5050357;28;20418;-71
2022/09/07 07:23:23;;;;;;;12.73;3.30;;;;;;;23.70;67.23;100157.91;5035859;28;20975;-71
2022/09/07 07:25:48;;;;;;;11.93;2.90;;;;;;;23.70;67.19;100163.69;5051969;28;20198;-71
2022/09/07 07:28:14;;;;;;;7.80;2.37;;;;;;;23.70;66.98;100163.69;5047182;28;20522;-71
2022/09/07 07:30:39;;;;;;;7.77;2.70;;;;;;;23.32;68.09;100158.88;5032580;28;20535;-72
2022/09/07 07:33:06;;;;;;;8.50;2.67;;;;;;;23.62;67.26;100156.28;5046936;28;20179;-72
2022/09/07 07:35:32;;;;;;;13.00;2.90;;;;;;;23.38;68.43;100162.97;5047734;28;20190;-72
2022/09/07 07:37:58;;;;;;;10.80;2.70;;;;;;;23.58;67.66;100158.38;5034718;28;20426;-73
2022/09/07 07:40:24;;;;;;;6.60;2.90;;;;;;;23.71;67.13;100164.47;5052591;28;20194;-73
2022/09/07 07:42:49;;;;;;;9.47;3.10;;;;;;;23.73;67.02;100162.81;5019110;28;20670;-72
2022/09/07 07:45:15;;;;;;;14.00;3.37;;;;;;;23.75;67.07;100157.47;5050094;28;20442;-73
2022/09/07 07:47:40;;;;;;;9.17;3.10;;;;;;;23.73;67.02;100156.25;5033439;28;20170;-72
2022/09/07 07:50:07;;;;;;;8.33;2.80;;;;;;;23.77;66.60;100162.78;5058242;28;20186;-73
2022/09/07 07:52:33;;;;;;;11.20;2.60;;;;;;;23.80;66.80;100171.44;5049912;28;20187;-72
2022/09/07 07:54:59;;;;;;;10.70;3.50;;;;;;;23.80;66.59;100159.91;5070373;28;20748;-72
2022/09/07 07:57:24;;;;;;;8.37;2.90;;;;;;;23.84;66.04;100160.69;5069414;28;20419;-72
2022/09/07 07:59:50;;;;;;;7.20;2.80;;;;;;;23.84;66.27;100169.34;5036267;28;20178;-72
2022/09/07 08:02:16;;;;;;;18.83;3.37;;;;;;;23.77;66.97;100180.09;5059466;28;20183;-73
2022/09/07 08:04:41;;;;;;;13.23;3.80;;;;;;;23.67;67.03;100175.19;5070824;28;20562;-73
2022/09/07 08:07:07;;;;;;;35.13;4.00;;;;;;;23.73;66.96;100176.44;5054936;28;20658;-73
2022/09/07 08:09:33;;;;;;;14.40;3.50;;;;;;;23.80;66.53;100179.28;5054222;28;20177;-73
2022/09/07 08:11:58;;;;;;;13.50;4.43;;;;;;;23.85;66.21;100175.94;5071085;28;20425;-72
2022/09/07 08:14:24;;;;;;;27.17;4.53;;;;;;;23.81;66.51;100178.03;5070938;28;20174;-72
2022/09/07 08:16:50;;;;;;;18.50;2.90;;;;;;;23.83;66.54;100181.31;5070589;28;20178;-73
2022/09/07 08:19:15;;;;;;;14.43;3.30;;;;;;;23.85;66.20;100173.91;5052590;28;20179;-72
2022/09/07 08:21:41;;;;;;;25.33;3.63;;;;;;;23.90;66.43;100173.50;5069906;28;20179;-72
2022/09/07 08:24:06;;;;;;;8.47;3.00;;;;;;;23.92;66.77;100167.28;5072013;28;20527;-72
2022/09/07 08:26:32;;;;;;;13.70;3.17;;;;;;;23.95;66.22;100175.94;5052951;28;20614;-73
2022/09/07 08:28:57;;;;;;;7.43;2.77;;;;;;;23.99;66.07;100170.13;5049951;28;20259;-72
2022/09/07 08:31:23;;;;;;;11.20;2.80;;;;;;;23.99;66.34;100182.47;5051315;28;20245;-72
2022/09/07 08:33:48;;;;;;;12.73;3.13;;;;;;;23.94;66.68;100173.47;5048645;28;20217;-71
2022/09/07 08:36:18;;;;;;;17.57;3.87;;;;;;;23.97;66.62;100170.56;5033078;28;20156;-72
2022/09/07 08:38:43;;;;;;;11.60;3.00;;;;;;;24.00;66.52;100168.88;5034177;28;20316;-73
2022/09/07 08:41:34;;;;;;;7.57;2.60;;;;;;;23.94;66.19;100167.69;5057055;28;20418;-72
2022/09/07 08:44:04;;;;;;;21.13;3.50;;;;;;;23.99;66.16;100170.94;5068889;28;20223;-72
2022/09/07 08:46:37;;;;;;;6.63;2.37;;;;;;;24.03;65.80;100177.50;5070055;28;20523;-72
2022/09/07 08:49:03;;;;;;;7.50;2.87;;;;;;;24.06;66.54;100178.72;5068917;28;20769;-72
2022/09/07 08:51:42;;;;;;;17.73;7.30;;;;;;;24.07;66.56;100178.31;5068820;28;21195;-72
2022/09/07 08:54:09;;;;;;;11.60;3.30;;;;;;;24.10;65.97;100185.31;5035272;28;20421;-72
2022/09/07 08:56:37;;;;;;;8.43;3.23;;;;;;;24.09;65.83;100181.59;5045956;28;20433;-72
2022/09/07 08:59:10;;;;;;;12.40;3.20;;;;;;;24.08;65.80;100179.97;5032464;28;20405;-72
2022/09/07 09:01:40;;;;;;;7.23;2.63;;;;;;;24.09;66.13;100181.59;5067709;28;20443;-72
2022/09/07 09:04:12;;;;;;;10.63;2.93;;;;;;;24.07;66.16;100172.56;5058809;28;20466;-72
2022/09/07 09:06:53;;;;;;;16.80;2.83;;;;;;;24.16;66.02;100169.19;5049572;28;20886;-72
2022/09/07 09:09:22;;;;;;;10.50;2.70;;;;;;;24.13;65.48;100175.81;5063825;28;21071;-71
2022/09/07 09:12:10;;;;;;;6.97;2.77;;;;;;;24.17;65.64;100168.78;5069023;28;20938;-72
2022/09/07 09:14:59;;;;;;;7.50;2.93;;;;;;;24.18;65.15;100167.53;5068848;28;20402;-71
2022/09/07 09:17:38;;;;;;;7.57;2.73;;;;;;;24.19;65.10;100168.34;5054748;28;20494;-71
2022/09/07 09:20:11;;;;;;;7.43;3.17;;;;;;;24.21;65.03;100158.03;5070768;28;20429;-73
2022/09/07 09:22:37;;;;;;;11.17;2.97;;;;;;;24.25;65.30;100166.66;5052554;28;20426;-72
2022/09/07 09:25:04;;;;;;;6.87;2.77;;;;;;;24.23;64.88;100164.19;5037488;28;20418;-72
2022/09/07 09:27:30;;;;;;;5.40;2.43;;;;;;;24.25;65.14;100167.50;5072133;28;20167;-72
2022/09/07 09:29:55;;;;;;;6.00;3.40;;;;;;;24.26;65.13;100157.59;5054476;28;20432;-72
2022/09/07 09:32:32;;;;;;;13.20;3.20;;;;;;;24.28;64.40;100155.09;5072253;28;20159;-72
2022/09/07 09:35:24;;;;;;;7.17;2.90;;;;;;;24.31;64.40;100162.91;5072498;28;20609;-72
2022/09/07 09:37:49;;;;;;;7.73;2.87;;;;;;;24.31;64.60;100154.25;5066592;28;20900;-72
2022/09/07 09:40:25;;;;;;;6.87;2.90;;;;;;;24.29;65.17;100148.06;5036037;28;20430;-72
2022/09/07 09:43:00;;;;;;;14.50;3.27;;;;;;;24.29;64.45;100150.16;5050955;28;20164;-72
2022/09/07 09:45:27;;;;;;;6.87;2.60;;;;;;;24.31;64.51;100141.88;5052551;28;20524;-72
2022/09/07 09:47:53;;;;;;;11.67;2.93;;;;;;;24.30;64.14;100143.13;5038556;28;20779;-72
2022/09/07 09:50:31;;;;;;;7.60;2.63;;;;;;;24.27;64.33;100143.97;5043415;28;20429;-72
2022/09/07 09:52:56;;;;;;;9.10;3.03;;;;;;;24.33;64.12;100143.09;5042538;28;20171;-72
2022/09/07 09:55:26;;;;;;;7.73;2.93;;;;;;;24.33;64.06;100142.28;5046189;28;20406;-72
2022/09/07 09:57:57;;;;;;;6.93;2.60;;;;;;;24.40;63.94;100136.44;5071139;28;20175;-71
2022/09/07 10:00:23;;;;;;;6.37;2.53;;;;;;;24.44;63.04;100132.28;5056044;28;20878;-71
2022/09/07 10:03:21;;;;;;;7.17;2.83;;;;;;;24.42;63.33;100131.06;5054522;28;20508;-71
2022/09/07 10:05:46;;;;;;;11.73;2.63;;;;;;;24.45;63.41;100133.94;5027622;28;20497;-71
2022/09/07 10:08:24;;;;;;;7.90;2.80;;;;;;;24.53;63.24;100120.28;5055534;28;20448;-71
2022/09/07 10:11:02;;;;;;;9.73;2.87;;;;;;;24.52;63.07;100130.16;5066844;28;20183;-71
2022/09/07 10:13:35;;;;;;;7.27;2.90;;;;;;;24.60;63.07;100126.00;5051642;28;20422;-71
2022/09/07 10:16:05;;;;;;;6.50;2.73;;;;;;;24.55;62.70;100123.53;5035096;28;20525;-71
2022/09/07 10:18:34;;;;;;;4.50;2.13;;;;;;;24.53;62.62;100131.81;5043897;28;20756;-71
2022/09/07 10:21:31;;;;;;;8.53;2.63;;;;;;;24.53;62.09;100129.72;5063120;28;20418;-71
2022/09/07 10:24:12;;;;;;;8.97;2.80;;;;;;;24.54;62.13;100128.47;5071667;28;20417;-71
2022/09/07 10:26:38;;;;;;;9.07;2.77;;;;;;;24.56;61.62;100123.13;5038046;28;20457;-72
2022/09/07 10:29:34;;;;;;;9.50;2.60;;;;;;;24.59;60.74;100113.63;5071086;28;20931;-71
2022/09/07 10:32:18;;;;;;;6.53;2.57;;;;;;;24.54;61.07;100111.16;5049904;28;20258;-71
2022/09/07 10:34:50;;;;;;;7.17;2.40;;;;;;;24.57;61.48;100104.53;5051181;28;20406;-72
2022/09/07 10:37:28;;;;;;;6.10;2.80;;;;;;;24.59;61.33;100102.06;5051989;28;20406;-71
2022/09/07 10:40:13;;;;;;;5.23;2.10;;;;;;;24.63;60.75;100097.09;5050934;28;20530;-71
2022/09/07 10:42:41;;;;;;;7.73;2.50;;;;;;;24.60;60.77;100091.34;5055524;28;20445;-71
2022/09/07 10:45:19;;;;;;;10.57;2.20;;;;;;;24.52;61.16;100081.91;5070199;28;20421;-72
2022/09/07 10:48:00;;;;;;;5.47;2.43;;;;;;;24.56;61.05;100076.94;5071046;28;20417;-72
2022/09/07 10:50:49;;;;;;;6.23;2.20;;;;;;;24.64;60.78;100081.41;5071805;28;20449;-72
2022/09/07 10:53:36;;;;;;;10.93;3.33;;;;;;;24.69;60.41;100071.47;5049642;28;20505;-71
2022/09/07 10:56:08;;;;;;;7.23;2.60;;;;;;;24.70;60.00;100071.03;5051416;28;20422;-71
2022/09/07 10:58:37;;;;;;;7.47;2.97;;;;;;;24.70;59.68;100061.56;5033908;28;20426;-72
2022/09/07 11:01:18;;;;;;;11.97;3.10;;;;;;;24.69;60.37;100065.69;5050825;28;20744;-72
2022/09/07 11:04:08;;;;;;;7.67;2.43;;;;;;;24.72;59.46;100071.41;5046615;28;20508;-72
2022/09/07 11:06:49;;;;;;;10.03;3.13;;;;;;;24.76;59.24;100072.22;5070119;28;20476;-72
2022/09/07 11:09:25;;;;;;;7.63;2.97;;;;;;;24.71;59.18;100058.25;5053584;28;20418;-72
2022/09/07 11:12:00;;;;;;;6.07;2.33;;;;;;;24.72;59.26;100053.28;5071500;28;20479;-71
2022/09/07 11:14:26;;;;;;;4.80;2.40;;;;;;;24.79;59.34;100054.00;5054998;28;20520;-72
2022/09/07 11:16:56;;;;;;;7.33;3.27;;;;;;;25.00;57.46;100041.41;5053327;28;20428;-72
2022/09/07 11:19:48;;;;;;;5.17;2.10;;;;;;;24.80;58.16;100046.19;5053404;28;20463;-71
2022/09/07 11:22:44;;;;;;;5.67;3.07;;;;;;;24.82;58.83;100046.56;5030068;28;20533;-72
2022/09/07 11:25:30;;;;;;;8.40;2.60;;;;;;;24.82;58.75;100038.72;5051311;28;20576;-72
2022/09/07 11:28:07;;;;;;;5.50;2.40;;;;;;;24.94;59.16;100035.25;5058110;28;20421;-72
2022/09/07 11:30:39;;;;;;;10.00;3.10;;;;;;;24.95;58.55;100044.75;5071028;28;20424;-72
2022/09/07 11:33:51;;;;;;;8.83;3.67;;;;;;;25.01;58.04;100054.59;5070625;28;20475;-73
2022/09/07 11:36:17;;;;;;;5.43;2.50;;;;;;;24.92;59.07;100043.56;5049761;28;20445;-72
2022/09/07 11:38:54;;;;;;;7.57;2.70;;;;;;;24.93;59.49;100042.28;5018563;28;20434;-72